sensor_id;sensor_type;location;lat;lon;timestamp;P1;durP1;ratioP1;P2;durP2;ratioP2
2772;SDS011;1394;47.044;15.744;2023-01-24T00:01:53;27.27;;;4.93;;
2772;SDS011;1394;47.044;15.744;2023-01-24T00:04:22;26.87;;;4.60;;
2772;SDS011;1394;47.044;15.744;2023-01-24T00:06:49;26.97;;;4.57;;
2772;SDS011;1394;47.044;15.744;2023-01-24T00:09:16;27.17;;;5.00;;
2772;SDS011;1394;47.044;15.744;2023-01-24T00:11:44;26.70;;;4.60;;
2772;SDS011;1394;47.044;15.744;2023-01-24T00:14:11;26.37;;;4.30;;
2772;SDS011;1394;47.044;15.744;2023-01-24T00:16:38;27.10;;;4.90;;
2772;SDS011;1394;47.044;15.744;2023-01-24T00:19:05;27.00;;;4.67;;
2772;SDS011;1394;47.044;15.744;2023-01-24T00:21:34;26.40;;;3.90;;
2772;SDS011;1394;47.044;15.744;2023-01-24T00:24:01;25.77;;;3.77;;
2772;SDS011;1394;47.044;15.744;2023-01-24T00:26:28;27.13;;;4.50;;
2772;SDS011;1394;47.044;15.744;2023-01-24T00:28:56;26.47;;;4.53;;
2772;SDS011;1394;47.044;15.744;2023-01-24T00:31:24;26.87;;;4.80;;
2772;SDS011;1394;47.044;15.744;2023-01-24T00:33:51;26.37;;;4.27;;
2772;SDS011;1394;47.044;15.744;2023-01-24T00:36:18;27.10;;;4.90;;
2772;SDS011;1394;47.044;15.744;2023-01-24T00:38:47;26.40;;;4.33;;
2772;SDS011;1394;47.044;15.744;2023-01-24T00:41:16;25.73;;;3.83;;
2772;SDS011;1394;47.044;15.744;2023-01-24T00:43:46;25.97;;;3.83;;
2772;SDS011;1394;47.044;15.744;2023-01-24T00:46:13;26.67;;;4.60;;
2772;SDS011;1394;47.044;15.744;2023-01-24T00:48:40;25.80;;;3.60;;
2772;SDS011;1394;47.044;15.744;2023-01-24T00:51:07;26.47;;;4.03;;
2772;SDS011;1394;47.044;15.744;2023-01-24T00:53:41;26.63;;;4.60;;
2772;SDS011;1394;47.044;15.744;2023-01-24T00:56:10;25.87;;;3.60;;
2772;SDS011;1394;47.044;15.744;2023-01-24T00:58:37;26.90;;;4.60;;
2772;SDS011;1394;47.044;15.744;2023-01-24T01:01:05;27.20;;;4.97;;
2772;SDS011;1394;47.044;15.744;2023-01-24T01:03:32;26.07;;;4.13;;
2772;SDS011;1394;47.044;15.744;2023-01-24T01:06:00;25.90;;;3.90;;
2772;SDS011;1394;47.044;15.744;2023-01-24T01:08:27;25.90;;;3.83;;
2772;SDS011;1394;47.044;15.744;2023-01-24T01:10:54;26.20;;;4.27;;
2772;SDS011;1394;47.044;15.744;2023-01-24T01:13:23;26.90;;;4.20;;
2772;SDS011;1394;47.044;15.744;2023-01-24T01:15:50;25.87;;;4.03;;
2772;SDS011;1394;47.044;15.744;2023-01-24T01:18:18;26.10;;;3.80;;
2772;SDS011;1394;47.044;15.744;2023-01-24T01:20:50;25.97;;;3.73;;
2772;SDS011;1394;47.044;15.744;2023-01-24T01:23:17;26.53;;;4.20;;
2772;SDS011;1394;47.044;15.744;2023-01-24T01:25:46;26.27;;;4.20;;
2772;SDS011;1394;47.044;15.744;2023-01-24T01:28:14;26.17;;;4.33;;
2772;SDS011;1394;47.044;15.744;2023-01-24T01:30:42;25.87;;;3.97;;
2772;SDS011;1394;47.044;15.744;2023-01-24T01:33:11;27.57;;;4.93;;
2772;SDS011;1394;47.044;15.744;2023-01-24T01:35:38;26.37;;;4.10;;
2772;SDS011;1394;47.044;15.744;2023-01-24T01:38:05;27.10;;;4.40;;
2772;SDS011;1394;47.044;15.744;2023-01-24T01:40:32;27.30;;;5.07;;
2772;SDS011;1394;47.044;15.744;2023-01-24T01:43:00;25.97;;;3.80;;
2772;SDS011;1394;47.044;15.744;2023-01-24T01:45:33;26.63;;;4.70;;
2772;SDS011;1394;47.044;15.744;2023-01-24T01:48:03;26.10;;;3.80;;
2772;SDS011;1394;47.044;15.744;2023-01-24T01:50:32;26.67;;;4.30;;
2772;SDS011;1394;47.044;15.744;2023-01-24T01:53:02;26.10;;;3.70;;
2772;SDS011;1394;47.044;15.744;2023-01-24T01:55:31;25.70;;;3.57;;
2772;SDS011;1394;47.044;15.744;2023-01-24T01:57:59;26.40;;;4.03;;
2772;SDS011;1394;47.044;15.744;2023-01-24T02:00:27;26.40;;;3.90;;
2772;SDS011;1394;47.044;15.744;2023-01-24T02:02:55;26.10;;;3.87;;
2772;SDS011;1394;47.044;15.744;2023-01-24T02:05:46;26.50;;;4.17;;
2772;SDS011;1394;47.044;15.744;2023-01-24T02:08:15;26.77;;;4.40;;
2772;SDS011;1394;47.044;15.744;2023-01-24T02:10:47;26.90;;;4.70;;
2772;SDS011;1394;47.044;15.744;2023-01-24T02:13:32;27.23;;;4.90;;
2772;SDS011;1394;47.044;15.744;2023-01-24T02:16:00;26.70;;;4.33;;
2772;SDS011;1394;47.044;15.744;2023-01-24T02:18:30;26.27;;;4.10;;
2772;SDS011;1394;47.044;15.744;2023-01-24T02:20:58;26.20;;;3.60;;
2772;SDS011;1394;47.044;15.744;2023-01-24T02:23:28;25.87;;;3.57;;
2772;SDS011;1394;47.044;15.744;2023-01-24T02:26:06;26.70;;;4.23;;
2772;SDS011;1394;47.044;15.744;2023-01-24T02:28:35;26.60;;;4.00;;
2772;SDS011;1394;47.044;15.744;2023-01-24T02:31:03;26.50;;;3.90;;
2772;SDS011;1394;47.044;15.744;2023-01-24T02:33:30;25.60;;;3.50;;
2772;SDS011;1394;47.044;15.744;2023-01-24T02:36:09;26.30;;;4.10;;
2772;SDS011;1394;47.044;15.744;2023-01-24T02:38:38;25.70;;;3.40;;
2772;SDS011;1394;47.044;15.744;2023-01-24T02:41:09;26.20;;;4.00;;
2772;SDS011;1394;47.044;15.744;2023-01-24T02:43:40;25.90;;;3.70;;
2772;SDS011;1394;47.044;15.744;2023-01-24T02:46:09;26.53;;;3.87;;
2772;SDS011;1394;47.044;15.744;2023-01-24T02:48:37;26.07;;;4.23;;
2772;SDS011;1394;47.044;15.744;2023-01-24T02:51:04;26.33;;;4.20;;
2772;SDS011;1394;47.044;15.744;2023-01-24T02:53:49;26.37;;;4.07;;
2772;SDS011;1394;47.044;15.744;2023-01-24T02:56:18;25.60;;;3.60;;
2772;SDS011;1394;47.044;15.744;2023-01-24T02:59:03;26.10;;;4.00;;
2772;SDS011;1394;47.044;15.744;2023-01-24T03:01:30;26.20;;;4.23;;
2772;SDS011;1394;47.044;15.744;2023-01-24T03:03:57;25.63;;;3.67;;
2772;SDS011;1394;47.044;15.744;2023-01-24T03:06:25;25.70;;;3.37;;
2772;SDS011;1394;47.044;15.744;2023-01-24T03:08:52;26.40;;;4.50;;
2772;SDS011;1394;47.044;15.744;2023-01-24T03:11:22;25.57;;;3.47;;
2772;SDS011;1394;47.044;15.744;2023-01-24T03:13:49;25.93;;;3.23;;
2772;SDS011;1394;47.044;15.744;2023-01-24T03:16:34;25.30;;;3.23;;
2772;SDS011;1394;47.044;15.744;2023-01-24T03:19:19;25.73;;;3.53;;
2772;SDS011;1394;47.044;15.744;2023-01-24T03:22:03;26.10;;;4.03;;
2772;SDS011;1394;47.044;15.744;2023-01-24T03:24:48;25.70;;;3.60;;
2772;SDS011;1394;47.044;15.744;2023-01-24T03:27:35;26.10;;;3.90;;
2772;SDS011;1394;47.044;15.744;2023-01-24T03:30:20;27.70;;;5.67;;
2772;SDS011;1394;47.044;15.744;2023-01-24T03:33:04;27.20;;;4.23;;
2772;SDS011;1394;47.044;15.744;2023-01-24T03:35:49;26.80;;;4.80;;
2772;SDS011;1394;47.044;15.744;2023-01-24T03:38:20;25.90;;;3.77;;
2772;SDS011;1394;47.044;15.744;2023-01-24T03:41:05;27.73;;;3.60;;
2772;SDS011;1394;47.044;15.744;2023-01-24T03:43:33;25.60;;;3.43;;
2772;SDS011;1394;47.044;15.744;2023-01-24T03:46:00;25.50;;;3.40;;
2772;SDS011;1394;47.044;15.744;2023-01-24T03:48:27;26.60;;;4.47;;
2772;SDS011;1394;47.044;15.744;2023-01-24T03:51:02;26.90;;;4.70;;
2772;SDS011;1394;47.044;15.744;2023-01-24T03:53:47;26.17;;;4.10;;
2772;SDS011;1394;47.044;15.744;2023-01-24T03:56:14;26.60;;;4.87;;
2772;SDS011;1394;47.044;15.744;2023-01-24T03:58:44;26.23;;;4.37;;
2772;SDS011;1394;47.044;15.744;2023-01-24T04:01:12;25.50;;;3.17;;
2772;SDS011;1394;47.044;15.744;2023-01-24T04:03:39;25.70;;;3.67;;
2772;SDS011;1394;47.044;15.744;2023-01-24T04:06:07;25.30;;;3.33;;
2772;SDS011;1394;47.044;15.744;2023-01-24T04:08:34;26.93;;;4.87;;
2772;SDS011;1394;47.044;15.744;2023-01-24T04:11:01;25.57;;;3.53;;
2772;SDS011;1394;47.044;15.744;2023-01-24T04:13:29;25.67;;;3.90;;
2772;SDS011;1394;47.044;15.744;2023-01-24T04:15:57;25.60;;;3.53;;
2772;SDS011;1394;47.044;15.744;2023-01-24T04:18:24;25.90;;;3.90;;
2772;SDS011;1394;47.044;15.744;2023-01-24T04:20:52;25.90;;;3.70;;
2772;SDS011;1394;47.044;15.744;2023-01-24T04:23:19;25.70;;;3.40;;
2772;SDS011;1394;47.044;15.744;2023-01-24T04:25:48;25.57;;;3.63;;
2772;SDS011;1394;47.044;15.744;2023-01-24T04:28:19;26.00;;;3.60;;
2772;SDS011;1394;47.044;15.744;2023-01-24T04:30:55;25.50;;;3.50;;
2772;SDS011;1394;47.044;15.744;2023-01-24T04:33:23;25.90;;;3.97;;
2772;SDS011;1394;47.044;15.744;2023-01-24T04:35:50;25.77;;;3.57;;
2772;SDS011;1394;47.044;15.744;2023-01-24T04:38:19;25.80;;;3.77;;
2772;SDS011;1394;47.044;15.744;2023-01-24T04:40:46;25.17;;;3.13;;
2772;SDS011;1394;47.044;15.744;2023-01-24T04:43:13;25.47;;;3.23;;
2772;SDS011;1394;47.044;15.744;2023-01-24T04:45:40;25.30;;;3.20;;
2772;SDS011;1394;47.044;15.744;2023-01-24T04:48:09;26.63;;;4.20;;
2772;SDS011;1394;47.044;15.744;2023-01-24T04:50:37;25.80;;;3.70;;
2772;SDS011;1394;47.044;15.744;2023-01-24T04:53:04;25.80;;;3.63;;
2772;SDS011;1394;47.044;15.744;2023-01-24T04:55:34;25.93;;;3.43;;
2772;SDS011;1394;47.044;15.744;2023-01-24T04:58:02;25.80;;;3.97;;
2772;SDS011;1394;47.044;15.744;2023-01-24T05:00:30;25.80;;;3.47;;
2772;SDS011;1394;47.044;15.744;2023-01-24T05:02:59;25.73;;;3.87;;
2772;SDS011;1394;47.044;15.744;2023-01-24T05:05:27;25.63;;;3.60;;
2772;SDS011;1394;47.044;15.744;2023-01-24T05:07:57;25.67;;;3.63;;
2772;SDS011;1394;47.044;15.744;2023-01-24T05:10:24;26.47;;;4.40;;
2772;SDS011;1394;47.044;15.744;2023-01-24T05:12:52;26.10;;;4.07;;
2772;SDS011;1394;47.044;15.744;2023-01-24T05:15:19;26.27;;;4.27;;
2772;SDS011;1394;47.044;15.744;2023-01-24T05:17:47;28.93;;;5.77;;
2772;SDS011;1394;47.044;15.744;2023-01-24T05:20:15;26.97;;;4.83;;
2772;SDS011;1394;47.044;15.744;2023-01-24T05:22:43;26.30;;;4.30;;
2772;SDS011;1394;47.044;15.744;2023-01-24T05:25:15;29.97;;;7.80;;
2772;SDS011;1394;47.044;15.744;2023-01-24T05:27:44;27.87;;;6.23;;
2772;SDS011;1394;47.044;15.744;2023-01-24T05:30:11;27.30;;;5.20;;
2772;SDS011;1394;47.044;15.744;2023-01-24T05:32:39;26.40;;;4.03;;
2772;SDS011;1394;47.044;15.744;2023-01-24T05:35:07;25.90;;;3.87;;
2772;SDS011;1394;47.044;15.744;2023-01-24T05:37:36;25.53;;;3.63;;
2772;SDS011;1394;47.044;15.744;2023-01-24T05:40:04;25.77;;;3.70;;
2772;SDS011;1394;47.044;15.744;2023-01-24T05:42:33;25.87;;;3.80;;
2772;SDS011;1394;47.044;15.744;2023-01-24T05:45:01;25.47;;;3.60;;
2772;SDS011;1394;47.044;15.744;2023-01-24T05:47:28;26.00;;;4.20;;
2772;SDS011;1394;47.044;15.744;2023-01-24T05:49:55;25.90;;;3.87;;
2772;SDS011;1394;47.044;15.744;2023-01-24T05:52:23;26.33;;;4.33;;
2772;SDS011;1394;47.044;15.744;2023-01-24T05:54:50;25.90;;;3.90;;
2772;SDS011;1394;47.044;15.744;2023-01-24T05:57:18;28.83;;;6.40;;
2772;SDS011;1394;47.044;15.744;2023-01-24T05:59:46;27.27;;;4.70;;
2772;SDS011;1394;47.044;15.744;2023-01-24T06:02:14;40.77;;;14.00;;
2772;SDS011;1394;47.044;15.744;2023-01-24T06:04:43;49.63;;;19.20;;
2772;SDS011;1394;47.044;15.744;2023-01-24T06:07:10;33.97;;;9.00;;
2772;SDS011;1394;47.044;15.744;2023-01-24T06:09:40;36.17;;;10.63;;
2772;SDS011;1394;47.044;15.744;2023-01-24T06:12:07;33.00;;;10.00;;
2772;SDS011;1394;47.044;15.744;2023-01-24T06:14:34;31.57;;;9.57;;
2772;SDS011;1394;47.044;15.744;2023-01-24T06:17:05;28.60;;;6.03;;
2772;SDS011;1394;47.044;15.744;2023-01-24T06:19:32;26.30;;;4.53;;
2772;SDS011;1394;47.044;15.744;2023-01-24T06:22:03;27.20;;;5.50;;
2772;SDS011;1394;47.044;15.744;2023-01-24T06:24:35;30.60;;;8.40;;
2772;SDS011;1394;47.044;15.744;2023-01-24T06:27:04;29.50;;;7.50;;
2772;SDS011;1394;47.044;15.744;2023-01-24T06:29:32;28.80;;;6.63;;
2772;SDS011;1394;47.044;15.744;2023-01-24T06:32:07;26.77;;;4.80;;
2772;SDS011;1394;47.044;15.744;2023-01-24T06:34:42;27.07;;;5.30;;
2772;SDS011;1394;47.044;15.744;2023-01-24T06:37:18;27.30;;;4.97;;
2772;SDS011;1394;47.044;15.744;2023-01-24T06:39:51;27.93;;;5.00;;
2772;SDS011;1394;47.044;15.744;2023-01-24T06:42:21;26.23;;;4.40;;
2772;SDS011;1394;47.044;15.744;2023-01-24T06:44:49;25.90;;;3.67;;
2772;SDS011;1394;47.044;15.744;2023-01-24T06:47:17;26.77;;;4.17;;
2772;SDS011;1394;47.044;15.744;2023-01-24T06:49:45;26.27;;;4.10;;
2772;SDS011;1394;47.044;15.744;2023-01-24T06:52:13;26.80;;;4.93;;
2772;SDS011;1394;47.044;15.744;2023-01-24T06:54:40;29.50;;;7.07;;
2772;SDS011;1394;47.044;15.744;2023-01-24T06:57:07;27.77;;;5.60;;
2772;SDS011;1394;47.044;15.744;2023-01-24T06:59:35;29.00;;;6.27;;
2772;SDS011;1394;47.044;15.744;2023-01-24T07:02:02;29.97;;;8.10;;
2772;SDS011;1394;47.044;15.744;2023-01-24T07:04:32;27.67;;;5.60;;
2772;SDS011;1394;47.044;15.744;2023-01-24T07:07:01;27.00;;;5.07;;
2772;SDS011;1394;47.044;15.744;2023-01-24T07:09:31;26.50;;;4.27;;
2772;SDS011;1394;47.044;15.744;2023-01-24T07:11:58;27.03;;;5.63;;
2772;SDS011;1394;47.044;15.744;2023-01-24T07:14:25;26.80;;;4.50;;
2772;SDS011;1394;47.044;15.744;2023-01-24T07:16:53;26.33;;;4.30;;
2772;SDS011;1394;47.044;15.744;2023-01-24T07:19:21;26.77;;;4.60;;
2772;SDS011;1394;47.044;15.744;2023-01-24T07:21:55;26.73;;;4.30;;
2772;SDS011;1394;47.044;15.744;2023-01-24T07:24:24;26.60;;;4.80;;
2772;SDS011;1394;47.044;15.744;2023-01-24T07:26:51;26.80;;;4.50;;
2772;SDS011;1394;47.044;15.744;2023-01-24T07:29:19;26.50;;;4.20;;
2772;SDS011;1394;47.044;15.744;2023-01-24T07:31:46;26.37;;;3.90;;
2772;SDS011;1394;47.044;15.744;2023-01-24T07:34:14;26.77;;;4.57;;
2772;SDS011;1394;47.044;15.744;2023-01-24T07:36:42;26.00;;;4.00;;
2772;SDS011;1394;47.044;15.744;2023-01-24T07:39:12;26.70;;;4.10;;
2772;SDS011;1394;47.044;15.744;2023-01-24T07:41:40;25.90;;;4.03;;
2772;SDS011;1394;47.044;15.744;2023-01-24T07:44:09;26.90;;;3.87;;
2772;SDS011;1394;47.044;15.744;2023-01-24T07:46:37;25.93;;;3.90;;
2772;SDS011;1394;47.044;15.744;2023-01-24T07:49:04;26.10;;;4.10;;
2772;SDS011;1394;47.044;15.744;2023-01-24T07:51:31;26.70;;;4.07;;
2772;SDS011;1394;47.044;15.744;2023-01-24T07:53:58;26.80;;;4.80;;
2772;SDS011;1394;47.044;15.744;2023-01-24T07:56:30;26.03;;;3.90;;
2772;SDS011;1394;47.044;15.744;2023-01-24T07:58:57;26.30;;;4.27;;
2772;SDS011;1394;47.044;15.744;2023-01-24T08:01:25;26.23;;;4.10;;
2772;SDS011;1394;47.044;15.744;2023-01-24T08:03:53;26.30;;;3.90;;
2772;SDS011;1394;47.044;15.744;2023-01-24T08:06:22;26.40;;;4.20;;
2772;SDS011;1394;47.044;15.744;2023-01-24T08:08:50;26.47;;;4.60;;
2772;SDS011;1394;47.044;15.744;2023-01-24T08:11:17;26.77;;;4.40;;
2772;SDS011;1394;47.044;15.744;2023-01-24T08:13:45;26.47;;;4.40;;
2772;SDS011;1394;47.044;15.744;2023-01-24T08:16:15;26.40;;;4.30;;
2772;SDS011;1394;47.044;15.744;2023-01-24T08:18:42;27.07;;;4.60;;
2772;SDS011;1394;47.044;15.744;2023-01-24T08:21:09;26.70;;;4.53;;
2772;SDS011;1394;47.044;15.744;2023-01-24T08:23:37;26.60;;;4.60;;
2772;SDS011;1394;47.044;15.744;2023-01-24T08:26:04;26.63;;;4.40;;
2772;SDS011;1394;47.044;15.744;2023-01-24T08:28:31;26.70;;;4.77;;
2772;SDS011;1394;47.044;15.744;2023-01-24T08:31:05;26.77;;;5.10;;
2772;SDS011;1394;47.044;15.744;2023-01-24T08:33:32;26.27;;;4.40;;
2772;SDS011;1394;47.044;15.744;2023-01-24T08:36:03;27.27;;;5.33;;
2772;SDS011;1394;47.044;15.744;2023-01-24T08:38:30;27.70;;;5.27;;
2772;SDS011;1394;47.044;15.744;2023-01-24T08:40:57;27.30;;;5.00;;
2772;SDS011;1394;47.044;15.744;2023-01-24T08:43:24;26.30;;;4.60;;
2772;SDS011;1394;47.044;15.744;2023-01-24T08:45:53;26.10;;;3.97;;
2772;SDS011;1394;47.044;15.744;2023-01-24T08:48:22;27.00;;;4.70;;
2772;SDS011;1394;47.044;15.744;2023-01-24T08:50:50;26.77;;;4.80;;
2772;SDS011;1394;47.044;15.744;2023-01-24T08:53:18;26.83;;;4.83;;
2772;SDS011;1394;47.044;15.744;2023-01-24T08:55:47;27.43;;;5.00;;
2772;SDS011;1394;47.044;15.744;2023-01-24T08:58:16;27.60;;;5.47;;
2772;SDS011;1394;47.044;15.744;2023-01-24T09:00:43;26.80;;;4.50;;
2772;SDS011;1394;47.044;15.744;2023-01-24T09:03:12;26.40;;;4.60;;
2772;SDS011;1394;47.044;15.744;2023-01-24T09:05:43;26.77;;;4.90;;
2772;SDS011;1394;47.044;15.744;2023-01-24T09:08:11;27.27;;;5.00;;
2772;SDS011;1394;47.044;15.744;2023-01-24T09:10:40;27.20;;;4.87;;
2772;SDS011;1394;47.044;15.744;2023-01-24T09:13:07;26.10;;;4.50;;
2772;SDS011;1394;47.044;15.744;2023-01-24T09:15:37;26.67;;;4.80;;
2772;SDS011;1394;47.044;15.744;2023-01-24T09:18:05;27.43;;;5.40;;
2772;SDS011;1394;47.044;15.744;2023-01-24T09:20:32;27.47;;;4.90;;
2772;SDS011;1394;47.044;15.744;2023-01-24T09:23:00;27.10;;;4.87;;
2772;SDS011;1394;47.044;15.744;2023-01-24T09:25:34;27.67;;;5.90;;
2772;SDS011;1394;47.044;15.744;2023-01-24T09:28:01;27.67;;;5.77;;
2772;SDS011;1394;47.044;15.744;2023-01-24T09:30:28;27.43;;;5.50;;
2772;SDS011;1394;47.044;15.744;2023-01-24T09:32:58;27.67;;;5.70;;
2772;SDS011;1394;47.044;15.744;2023-01-24T09:35:25;27.33;;;5.47;;
2772;SDS011;1394;47.044;15.744;2023-01-24T09:37:52;27.70;;;4.90;;
2772;SDS011;1394;47.044;15.744;2023-01-24T09:40:25;28.30;;;4.97;;
2772;SDS011;1394;47.044;15.744;2023-01-24T09:42:56;27.27;;;5.23;;
2772;SDS011;1394;47.044;15.744;2023-01-24T09:45:27;26.90;;;5.00;;
2772;SDS011;1394;47.044;15.744;2023-01-24T09:47:57;27.90;;;5.37;;
2772;SDS011;1394;47.044;15.744;2023-01-24T09:50:27;27.30;;;4.80;;
2772;SDS011;1394;47.044;15.744;2023-01-24T09:52:56;26.67;;;4.73;;
2772;SDS011;1394;47.044;15.744;2023-01-24T09:55:27;27.63;;;5.70;;
2772;SDS011;1394;47.044;15.744;2023-01-24T09:57:55;27.20;;;5.07;;
2772;SDS011;1394;47.044;15.744;2023-01-24T10:00:24;27.07;;;5.03;;
2772;SDS011;1394;47.044;15.744;2023-01-24T10:02:54;27.53;;;5.23;;
2772;SDS011;1394;47.044;15.744;2023-01-24T10:05:21;27.43;;;5.43;;
2772;SDS011;1394;47.044;15.744;2023-01-24T10:08:02;28.00;;;5.53;;
2772;SDS011;1394;47.044;15.744;2023-01-24T10:10:42;27.50;;;5.23;;
2772;SDS011;1394;47.044;15.744;2023-01-24T10:13:13;27.23;;;4.67;;
2772;SDS011;1394;47.044;15.744;2023-01-24T10:15:45;29.60;;;7.17;;
2772;SDS011;1394;47.044;15.744;2023-01-24T10:18:24;30.57;;;9.30;;
2772;SDS011;1394;47.044;15.744;2023-01-24T10:21:00;30.57;;;7.77;;
2772;SDS011;1394;47.044;15.744;2023-01-24T10:23:29;31.17;;;9.00;;
2772;SDS011;1394;47.044;15.744;2023-01-24T10:26:01;26.77;;;4.47;;
2772;SDS011;1394;47.044;15.744;2023-01-24T10:28:30;33.70;;;10.67;;
2772;SDS011;1394;47.044;15.744;2023-01-24T10:31:02;46.90;;;21.50;;
2772;SDS011;1394;47.044;15.744;2023-01-24T10:33:32;34.23;;;11.80;;
2772;SDS011;1394;47.044;15.744;2023-01-24T10:36:04;32.27;;;10.40;;
2772;SDS011;1394;47.044;15.744;2023-01-24T10:38:32;37.87;;;13.57;;
2772;SDS011;1394;47.044;15.744;2023-01-24T10:41:10;29.30;;;7.40;;
2772;SDS011;1394;47.044;15.744;2023-01-24T10:43:41;35.97;;;12.63;;
2772;SDS011;1394;47.044;15.744;2023-01-24T10:46:12;27.57;;;5.27;;
2772;SDS011;1394;47.044;15.744;2023-01-24T10:48:44;27.10;;;4.90;;
2772;SDS011;1394;47.044;15.744;2023-01-24T10:51:14;26.83;;;4.80;;
2772;SDS011;1394;47.044;15.744;2023-01-24T10:53:42;26.50;;;4.47;;
2772;SDS011;1394;47.044;15.744;2023-01-24T10:56:11;27.50;;;4.83;;
2772;SDS011;1394;47.044;15.744;2023-01-24T10:58:39;27.67;;;5.13;;
2772;SDS011;1394;47.044;15.744;2023-01-24T11:01:08;26.67;;;4.20;;
2772;SDS011;1394;47.044;15.744;2023-01-24T11:03:38;26.87;;;4.13;;
2772;SDS011;1394;47.044;15.744;2023-01-24T11:06:09;26.30;;;3.90;;
2772;SDS011;1394;47.044;15.744;2023-01-24T11:08:47;26.33;;;3.93;;
2772;SDS011;1394;47.044;15.744;2023-01-24T11:11:22;26.87;;;4.47;;
2772;SDS011;1394;47.044;15.744;2023-01-24T11:13:52;27.17;;;5.10;;
2772;SDS011;1394;47.044;15.744;2023-01-24T11:16:21;27.43;;;5.00;;
2772;SDS011;1394;47.044;15.744;2023-01-24T11:18:51;26.90;;;3.97;;
2772;SDS011;1394;47.044;15.744;2023-01-24T11:21:19;26.90;;;4.50;;
2772;SDS011;1394;47.044;15.744;2023-01-24T11:23:57;26.47;;;4.33;;
2772;SDS011;1394;47.044;15.744;2023-01-24T11:26:27;27.30;;;5.10;;
2772;SDS011;1394;47.044;15.744;2023-01-24T11:28:56;27.10;;;4.90;;
2772;SDS011;1394;47.044;15.744;2023-01-24T11:31:26;28.70;;;4.90;;
2772;SDS011;1394;47.044;15.744;2023-01-24T11:33:57;26.97;;;4.50;;
2772;SDS011;1394;47.044;15.744;2023-01-24T11:36:34;27.27;;;5.13;;
2772;SDS011;1394;47.044;15.744;2023-01-24T11:39:09;26.70;;;3.77;;
2772;SDS011;1394;47.044;15.744;2023-01-24T11:41:39;26.63;;;4.40;;
2772;SDS011;1394;47.044;15.744;2023-01-24T11:47:00;26.10;;;4.10;;
2772;SDS011;1394;47.044;15.744;2023-01-24T11:49:36;26.33;;;4.50;;
2772;SDS011;1394;47.044;15.744;2023-01-24T11:52:07;26.40;;;4.13;;
2772;SDS011;1394;47.044;15.744;2023-01-24T11:54:43;26.30;;;4.10;;
2772;SDS011;1394;47.044;15.744;2023-01-24T11:57:16;26.23;;;4.10;;
2772;SDS011;1394;47.044;15.744;2023-01-24T11:59:50;26.37;;;4.03;;
2772;SDS011;1394;47.044;15.744;2023-01-24T12:02:24;26.07;;;3.50;;
2772;SDS011;1394;47.044;15.744;2023-01-24T12:05:04;27.17;;;4.43;;
2772;SDS011;1394;47.044;15.744;2023-01-24T12:07:40;26.70;;;4.47;;
2772;SDS011;1394;47.044;15.744;2023-01-24T12:10:09;26.20;;;4.27;;
2772;SDS011;1394;47.044;15.744;2023-01-24T12:12:44;26.47;;;3.83;;
2772;SDS011;1394;47.044;15.744;2023-01-24T12:15:20;26.77;;;4.30;;
2772;SDS011;1394;47.044;15.744;2023-01-24T12:17:53;28.20;;;3.80;;
2772;SDS011;1394;47.044;15.744;2023-01-24T12:20:33;27.07;;;4.43;;
2772;SDS011;1394;47.044;15.744;2023-01-24T12:23:11;26.90;;;4.57;;
2772;SDS011;1394;47.044;15.744;2023-01-24T12:25:44;26.40;;;4.30;;
2772;SDS011;1394;47.044;15.744;2023-01-24T12:28:14;26.60;;;3.90;;
2772;SDS011;1394;47.044;15.744;2023-01-24T12:30:44;27.30;;;5.30;;
2772;SDS011;1394;47.044;15.744;2023-01-24T12:33:17;26.90;;;5.10;;
2772;SDS011;1394;47.044;15.744;2023-01-24T12:35:50;26.13;;;4.00;;
2772;SDS011;1394;47.044;15.744;2023-01-24T12:38:20;27.30;;;4.63;;
2772;SDS011;1394;47.044;15.744;2023-01-24T12:40:49;27.10;;;4.20;;
2772;SDS011;1394;47.044;15.744;2023-01-24T12:43:22;26.70;;;4.70;;
2772;SDS011;1394;47.044;15.744;2023-01-24T12:45:54;26.53;;;4.20;;
2772;SDS011;1394;47.044;15.744;2023-01-24T12:48:27;26.40;;;4.30;;
2772;SDS011;1394;47.044;15.744;2023-01-24T12:51:01;26.50;;;4.60;;
2772;SDS011;1394;47.044;15.744;2023-01-24T12:53:31;27.10;;;4.70;;
2772;SDS011;1394;47.044;15.744;2023-01-24T12:56:01;27.57;;;4.70;;
2772;SDS011;1394;47.044;15.744;2023-01-24T12:58:32;25.87;;;3.67;;
2772;SDS011;1394;47.044;15.744;2023-01-24T13:01:03;26.80;;;4.80;;
2772;SDS011;1394;47.044;15.744;2023-01-24T13:03:34;26.50;;;4.83;;
2772;SDS011;1394;47.044;15.744;2023-01-24T13:06:05;27.13;;;4.50;;
2772;SDS011;1394;47.044;15.744;2023-01-24T13:08:36;26.33;;;4.03;;
2772;SDS011;1394;47.044;15.744;2023-01-24T13:11:15;26.20;;;3.93;;
2772;SDS011;1394;47.044;15.744;2023-01-24T13:13:47;27.37;;;5.03;;
2772;SDS011;1394;47.044;15.744;2023-01-24T13:16:32;26.20;;;3.90;;
2772;SDS011;1394;47.044;15.744;2023-01-24T13:19:04;25.80;;;3.80;;
2772;SDS011;1394;47.044;15.744;2023-01-24T13:21:35;25.87;;;3.60;;
2772;SDS011;1394;47.044;15.744;2023-01-24T13:24:18;26.37;;;3.93;;
2772;SDS011;1394;47.044;15.744;2023-01-24T13:26:56;27.30;;;4.30;;
2772;SDS011;1394;47.044;15.744;2023-01-24T13:29:31;26.17;;;3.63;;
2772;SDS011;1394;47.044;15.744;2023-01-24T13:32:06;26.63;;;3.80;;
2772;SDS011;1394;47.044;15.744;2023-01-24T13:34:36;25.93;;;3.60;;
2772;SDS011;1394;47.044;15.744;2023-01-24T13:37:05;26.60;;;3.90;;
2772;SDS011;1394;47.044;15.744;2023-01-24T13:39:37;26.50;;;4.27;;
2772;SDS011;1394;47.044;15.744;2023-01-24T13:42:19;28.20;;;5.10;;
2772;SDS011;1394;47.044;15.744;2023-01-24T13:44:50;26.33;;;4.63;;
2772;SDS011;1394;47.044;15.744;2023-01-24T13:47:21;26.20;;;3.90;;
2772;SDS011;1394;47.044;15.744;2023-01-24T13:50:09;30.13;;;7.87;;
2772;SDS011;1394;47.044;15.744;2023-01-24T13:52:38;26.00;;;3.80;;
2772;SDS011;1394;47.044;15.744;2023-01-24T13:57:49;25.70;;;3.40;;
2772;SDS011;1394;47.044;15.744;2023-01-24T14:00:18;26.00;;;3.90;;
2772;SDS011;1394;47.044;15.744;2023-01-24T14:03:04;26.83;;;4.30;;
2772;SDS011;1394;47.044;15.744;2023-01-24T14:05:42;25.90;;;3.80;;
2772;SDS011;1394;47.044;15.744;2023-01-24T14:11:08;26.23;;;4.00;;
2772;SDS011;1394;47.044;15.744;2023-01-24T14:13:41;25.80;;;3.70;;
2772;SDS011;1394;47.044;15.744;2023-01-24T14:16:12;25.77;;;3.50;;
2772;SDS011;1394;47.044;15.744;2023-01-24T14:18:46;26.63;;;4.47;;
2772;SDS011;1394;47.044;15.744;2023-01-24T14:21:13;26.07;;;4.03;;
2772;SDS011;1394;47.044;15.744;2023-01-24T14:23:44;26.63;;;4.10;;
2772;SDS011;1394;47.044;15.744;2023-01-24T14:26:13;27.07;;;4.43;;
2772;SDS011;1394;47.044;15.744;2023-01-24T14:28:42;26.70;;;4.30;;
2772;SDS011;1394;47.044;15.744;2023-01-24T14:31:18;26.30;;;4.30;;
2772;SDS011;1394;47.044;15.744;2023-01-24T14:33:51;26.30;;;3.93;;
2772;SDS011;1394;47.044;15.744;2023-01-24T14:36:20;26.50;;;4.00;;
2772;SDS011;1394;47.044;15.744;2023-01-24T14:41:32;26.00;;;3.80;;
2772;SDS011;1394;47.044;15.744;2023-01-24T14:43:59;26.80;;;4.07;;
2772;SDS011;1394;47.044;15.744;2023-01-24T14:46:27;26.43;;;3.90;;
2772;SDS011;1394;47.044;15.744;2023-01-24T14:48:57;29.20;;;3.90;;
2772;SDS011;1394;47.044;15.744;2023-01-24T14:51:27;26.30;;;4.37;;
2772;SDS011;1394;47.044;15.744;2023-01-24T14:53:56;26.23;;;4.00;;
2772;SDS011;1394;47.044;15.744;2023-01-24T14:56:23;26.93;;;4.70;;
2772;SDS011;1394;47.044;15.744;2023-01-24T14:58:50;27.27;;;5.30;;
2772;SDS011;1394;47.044;15.744;2023-01-24T15:01:22;26.50;;;4.03;;
2772;SDS011;1394;47.044;15.744;2023-01-24T15:03:52;26.10;;;4.17;;
2772;SDS011;1394;47.044;15.744;2023-01-24T15:06:20;26.70;;;4.67;;
2772;SDS011;1394;47.044;15.744;2023-01-24T15:08:48;27.20;;;4.73;;
2772;SDS011;1394;47.044;15.744;2023-01-24T15:11:18;26.80;;;4.80;;
2772;SDS011;1394;47.044;15.744;2023-01-24T15:13:49;39.10;;;12.73;;
2772;SDS011;1394;47.044;15.744;2023-01-24T15:16:17;37.90;;;11.97;;
2772;SDS011;1394;47.044;15.744;2023-01-24T15:18:48;44.33;;;14.80;;